Time;durP1;ratioP1;P1;durP2;ratioP2;P2;SDS_P1;SDS_P2;PMS_P1;PMS_P2;Temp;Humidity;BMP_temperature;BMP_pressure;BME280_temperature;BME280_humidity;BME280_pressure;Samples;Min_cycle;Max_cycle;Signal;HPM_P1;HPM_P2
2022/08/05 00:01:39;;;;;;;1.60;1.50;;;;;;;24.17;66.21;95207.06;4283272;33;20228;-58
2022/08/05 00:04:04;;;;;;;1.57;1.47;;;;;;;24.07;67.24;95207.81;4275466;33;20198;-58
2022/08/05 00:06:30;;;;;;;0.70;0.70;;;;;;;24.09;66.63;95202.78;4283115;33;20222;-59
2022/08/05 00:08:55;;;;;;;1.13;1.13;;;;;;;24.10;66.32;95207.06;4287139;33;20217;-58
2022/08/05 00:11:21;;;;;;;1.47;1.47;;;;;;;24.10;66.64;95207.84;4279781;33;20240;-59
2022/08/05 00:13:46;;;;;;;1.30;1.30;;;;;;;24.02;67.49;95200.06;4288473;33;20209;-59
2022/08/05 00:16:14;;;;;;;1.07;1.07;;;;;;;23.91;67.95;95192.63;4280825;33;20233;-61
2022/08/05 00:18:42;;;;;;;0.80;0.80;;;;;;;23.85;68.20;95196.91;4283312;33;20254;-58
2022/08/05 00:21:08;;;;;;;1.00;1.00;;;;;;;23.86;67.57;95192.25;4281007;33;20213;-58
2022/08/05 00:23:34;;;;;;;1.50;1.50;;;;;;;23.88;68.18;95196.12;4285372;33;20246;-59
2022/08/05 00:25:59;;;;;;;0.80;0.80;;;;;;;23.90;67.93;95193.78;4282536;33;20213;-58
2022/08/05 00:28:24;;;;;;;0.93;0.93;;;;;;;23.90;67.56;95193.78;4294114;33;20191;-59
2022/08/05 00:30:50;;;;;;;0.70;0.70;;;;;;;23.91;67.90;95189.94;4288883;33;20230;-58
2022/08/05 00:33:16;;;;;;;1.53;1.47;;;;;;;23.95;66.27;95184.53;4285604;33;20261;-58
2022/08/05 00:35:41;;;;;;;1.27;1.27;;;;;;;23.98;66.89;95189.19;4298495;33;20257;-58
2022/08/05 00:38:06;;;;;;;0.87;0.87;;;;;;;23.99;66.84;95188.81;4283682;33;20194;-58
2022/08/05 00:40:32;;;;;;;1.23;1.20;;;;;;;23.99;66.42;95183.37;4287084;33;20289;-58
2022/08/05 00:43:00;;;;;;;1.03;1.03;;;;;;;23.99;66.30;95180.69;4292337;33;20203;-58
2022/08/05 00:45:25;;;;;;;0.93;0.93;;;;;;;24.02;66.62;95183.78;4290965;33;20245;-59
2022/08/05 00:47:51;;;;;;;1.37;1.27;;;;;;;24.01;66.67;95187.66;4289830;33;20281;-58
2022/08/05 00:50:16;;;;;;;1.00;1.00;;;;;;;24.01;66.31;95182.22;4276689;33;20195;-59
2022/08/05 00:52:41;;;;;;;1.10;1.10;;;;;;;24.00;65.91;95184.16;4281478;33;20191;-61
2022/08/05 00:55:07;;;;;;;0.90;0.90;;;;;;;24.02;65.76;95178.38;4292404;33;20194;-59
2022/08/05 00:57:32;;;;;;;0.87;0.87;;;;;;;24.02;66.75;95183.78;4290581;33;20190;-58
2022/08/05 00:59:57;;;;;;;0.90;0.90;;;;;;;23.98;66.25;95189.97;4293566;33;20238;-58
2022/08/05 01:02:23;;;;;;;1.07;1.07;;;;;;;23.98;66.05;95183.78;4289226;33;20206;-58
2022/08/05 01:04:48;;;;;;;0.80;0.80;;;;;;;23.99;66.19;95183.37;4287453;33;20194;-59
2022/08/05 01:07:13;;;;;;;1.13;1.13;;;;;;;23.97;65.67;95180.28;4295134;33;20199;-59
2022/08/05 01:09:40;;;;;;;0.73;0.73;;;;;;;23.96;65.95;95181.44;4293092;33;20194;-58
2022/08/05 01:12:09;;;;;;;1.50;1.40;;;;;;;23.95;66.22;95174.47;4279814;33;20250;-58
2022/08/05 01:14:43;;;;;;;0.97;0.97;;;;;;;23.95;66.06;95179.88;4290045;33;20202;-58
2022/08/05 01:17:42;;;;;;;0.70;0.70;;;;;;;23.93;66.28;95182.19;4294298;33;20307;-58
2022/08/05 01:20:19;;;;;;;0.87;0.87;;;;;;;23.92;66.24;95177.16;4290990;33;20194;-58
2022/08/05 01:23:00;;;;;;;0.73;0.73;;;;;;;23.92;66.42;95182.56;4290016;33;20191;-59
2022/08/05 01:25:41;;;;;;;1.53;1.43;;;;;;;23.92;66.95;95182.56;4293925;33;20233;-58
2022/08/05 01:28:16;;;;;;;1.50;1.40;;;;;;;23.88;66.49;95181.81;4295079;33;20234;-58
2022/08/05 01:31:09;;;;;;;4.00;1.90;;;;;;;23.89;66.69;95181.44;4286067;33;20221;-62
2022/08/05 01:33:47;;;;;;;0.87;0.87;;;;;;;23.88;66.95;95182.59;4275353;33;20192;-58
2022/08/05 01:36:15;;;;;;;1.00;1.00;;;;;;;23.88;66.76;95174.47;4293359;33;20190;-60
2022/08/05 01:38:42;;;;;;;1.60;1.50;;;;;;;23.87;67.23;95183.75;4278317;33;20205;-58
2022/08/05 01:41:10;;;;;;;0.83;0.83;;;;;;;23.87;66.87;95174.84;4287255;33;20237;-58
2022/08/05 01:43:36;;;;;;;1.07;1.07;;;;;;;23.88;66.56;95182.59;4290410;33;20206;-58
2022/08/05 01:46:02;;;;;;;1.00;1.00;;;;;;;23.78;68.02;95179.81;4287366;33;20289;-58
2022/08/05 01:48:33;;;;;;;0.90;0.90;;;;;;;23.74;68.04;95168.97;4277726;33;20194;-57
2022/08/05 01:50:59;;;;;;;0.57;0.57;;;;;;;23.79;67.89;95182.16;4288752;33;20262;-58
2022/08/05 01:53:27;;;;;;;0.97;0.97;;;;;;;23.79;67.68;95176.72;4274787;33;20205;-57
2022/08/05 01:55:58;;;;;;;0.53;0.53;;;;;;;23.81;66.94;95176.34;4291640;33;20278;-58
2022/08/05 01:58:26;;;;;;;0.77;0.77;;;;;;;23.84;67.20;95181.00;4272422;33;20269;-58
2022/08/05 02:00:55;;;;;;;0.77;0.70;;;;;;;23.81;67.41;95179.06;4291615;33;20244;-58
2022/08/05 02:03:30;;;;;;;1.17;1.17;;;;;;;23.79;67.45;95175.97;4291386;33;20191;-57
2022/08/05 02:05:55;;;;;;;1.00;1.00;;;;;;;23.77;67.81;95181.75;4294051;33;20254;-57
2022/08/05 02:08:21;;;;;;;1.10;1.10;;;;;;;23.73;67.88;95177.47;4294343;33;20230;-58
2022/08/05 02:10:54;;;;;;;1.17;1.17;;;;;;;23.75;67.77;95175.16;4298429;33;20187;-58
2022/08/05 02:13:27;;;;;;;1.30;1.20;;;;;;;23.65;68.28;95176.69;4290146;33;20219;-58
2022/08/05 02:16:24;;;;;;;0.70;0.70;;;;;;;23.73;67.31;95186.38;4281824;33;20212;-58
2022/08/05 02:18:57;;;;;;;1.30;1.30;;;;;;;23.75;67.32;95175.16;4287289;33;20191;-60
2022/08/05 02:21:32;;;;;;;1.70;1.43;;;;;;;23.74;67.41;95173.59;4283625;33;20198;-58
2022/08/05 02:24:03;;;;;;;1.23;1.23;;;;;;;23.72;67.41;95179.41;4272692;33;20198;-58
2022/08/05 02:26:39;;;;;;;1.10;1.10;;;;;;;23.68;67.96;95180.56;4288998;33;20202;-58
2022/08/05 02:29:06;;;;;;;1.37;1.37;;;;;;;23.68;67.65;95181.34;4292583;33;20194;-58
2022/08/05 02:31:34;;;;;;;0.83;0.83;;;;;;;23.70;67.80;95178.22;4285852;33;20317;-58
2022/08/05 02:34:10;;;;;;;1.23;1.23;;;;;;;23.66;67.79;95178.25;4291809;33;20191;-58
2022/08/05 02:36:41;;;;;;;1.67;1.57;;;;;;;23.68;67.29;95178.63;4282987;33;20252;-58
2022/08/05 02:39:09;;;;;;;1.23;1.23;;;;;;;23.68;67.34;95175.94;4285931;33;20206;-58
2022/08/05 02:41:36;;;;;;;1.33;1.33;;;;;;;23.68;67.35;95167.81;4275949;33;20210;-58
2022/08/05 02:44:06;;;;;;;0.83;0.83;;;;;;;23.67;67.52;95168.19;4290773;33;20250;-58
2022/08/05 02:46:32;;;;;;;1.40;1.40;;;;;;;23.65;67.67;95173.97;4290021;33;20241;-58
2022/08/05 02:48:58;;;;;;;0.93;0.93;;;;;;;23.68;67.34;95178.63;4288882;33;20217;-58
2022/08/05 02:51:25;;;;;;;1.30;1.20;;;;;;;23.67;67.12;95174.38;4275379;33;20221;-57
2022/08/05 02:53:51;;;;;;;1.27;1.17;;;;;;;23.68;67.17;95175.16;4292780;33;20186;-57
2022/08/05 02:56:17;;;;;;;0.97;0.97;;;;;;;23.69;66.98;95172.06;4290254;33;20209;-57
2022/08/05 02:58:43;;;;;;;1.40;1.40;;;;;;;23.68;67.01;95170.50;4285221;33;20190;-60
2022/08/05 03:01:16;;;;;;;2.30;2.20;;;;;;;23.65;66.94;95171.28;4292562;33;20191;-58
2022/08/05 03:03:42;;;;;;;1.10;1.10;;;;;;;23.68;66.92;95175.16;4297236;33;20209;-57
2022/08/05 03:06:09;;;;;;;1.03;1.03;;;;;;;23.62;67.44;95172.81;4281058;33;20209;-58
2022/08/05 03:08:37;;;;;;;0.87;0.87;;;;;;;23.63;67.18;95168.94;4276590;33;20262;-58
2022/08/05 03:11:06;;;;;;;1.63;1.63;;;;;;;23.62;67.26;95164.69;4288500;33;20277;-58
2022/08/05 03:13:31;;;;;;;2.17;1.70;;;;;;;23.63;67.09;95168.16;4273132;33;20222;-58
2022/08/05 03:15:57;;;;;;;0.90;0.90;;;;;;;23.61;67.64;95165.06;4283623;33;20197;-58
2022/08/05 03:18:22;;;;;;;1.20;1.20;;;;;;;23.53;68.16;95166.16;4290796;33;20198;-57
2022/08/05 03:20:47;;;;;;;1.43;1.43;;;;;;;23.56;67.47;95157.28;4275596;33;20191;-57
2022/08/05 03:23:13;;;;;;;1.40;1.30;;;;;;;23.52;68.02;95159.97;4279044;33;20202;-58
2022/08/05 03:25:39;;;;;;;1.20;1.20;;;;;;;23.55;67.79;95161.91;4282063;33;20257;-57
2022/08/05 03:28:07;;;;;;;1.17;1.17;;;;;;;23.53;68.22;95163.47;4292527;33;20193;-58
2022/08/05 03:30:33;;;;;;;1.53;1.43;;;;;;;23.48;68.27;95161.87;4265764;33;20266;-57
2022/08/05 03:32:59;;;;;;;1.47;1.37;;;;;;;23.52;68.00;95161.91;4291628;33;20191;-57
2022/08/05 03:35:27;;;;;;;1.13;0.97;;;;;;;23.54;67.71;95159.59;4283824;33;20220;-57
2022/08/05 03:38:01;;;;;;;1.50;1.50;;;;;;;23.52;67.93;95164.62;4282092;33;20226;-57
2022/08/05 03:40:27;;;;;;;0.93;0.93;;;;;;;23.54;67.65;95162.31;4291424;33;20251;-56
2022/08/05 03:42:52;;;;;;;0.93;0.93;;;;;;;23.51;67.88;95165.72;4276833;33;20202;-56
2022/08/05 03:45:18;;;;;;;1.00;1.00;;;;;;;23.52;67.72;95151.06;4278839;33;20190;-56
2022/08/05 03:47:43;;;;;;;1.10;1.10;;;;;;;23.52;67.79;95156.47;4283751;33;20205;-58
2022/08/05 03:50:09;;;;;;;0.83;0.83;;;;;;;23.52;67.70;95162.69;4284953;33;20253;-58
2022/08/05 03:52:43;;;;;;;0.83;0.83;;;;;;;23.52;67.70;95161.91;4289109;33;20210;-58
2022/08/05 03:55:14;;;;;;;0.53;0.53;;;;;;;23.49;67.87;95159.91;4288592;33;20276;-57
2022/08/05 03:57:42;;;;;;;0.80;0.80;;;;;;;23.48;68.02;95156.47;4294931;33;20294;-57
2022/08/05 04:00:10;;;;;;;1.10;1.10;;;;;;;23.48;67.79;95155.69;4290297;33;20271;-57
2022/08/05 04:02:37;;;;;;;1.10;1.10;;;;;;;23.53;67.47;95158.03;4277237;33;20217;-56
2022/08/05 04:05:04;;;;;;;0.57;0.57;;;;;;;23.50;67.75;95161.47;4287003;33;20273;-55
2022/08/05 04:07:32;;;;;;;0.40;0.40;;;;;;;23.49;67.85;95159.91;4280845;33;20257;-58
2022/08/05 04:09:58;;;;;;;1.90;1.80;;;;;;;23.50;67.67;95158.75;4291916;33;20205;-57
2022/08/05 04:12:23;;;;;;;0.70;0.70;;;;;;;23.50;67.83;95164.19;4284431;33;20257;-57
2022/08/05 04:14:49;;;;;;;1.47;1.47;;;;;;;23.45;68.18;95162.63;4290864;33;20186;-56
2022/08/05 04:17:15;;;;;;;0.50;0.50;;;;;;;23.41;68.53;95155.63;4280809;33;20238;-58
2022/08/05 04:19:47;;;;;;;1.33;1.33;;;;;;;23.46;67.94;95158.78;4294472;33;20256;-58
2022/08/05 04:22:13;;;;;;;0.87;0.87;;;;;;;23.47;68.00;95159.56;4292677;33;20210;-60
2022/08/05 04:24:40;;;;;;;1.13;1.13;;;;;;;23.36;68.75;95162.19;4296125;33;20245;-58
2022/08/05 04:27:06;;;;;;;0.60;0.60;;;;;;;23.46;67.84;95171.53;4293469;33;20201;-55
2022/08/05 04:29:32;;;;;;;0.87;0.87;;;;;;;23.49;67.60;95163.41;4291041;33;22895;-56
2022/08/05 04:31:57;;;;;;;1.50;1.20;;;;;;;23.43;68.46;95177.72;4293420;33;20240;-57
2022/08/05 04:34:22;;;;;;;0.80;0.80;;;;;;;23.33;68.93;95186.53;4277490;33;20204;-58
2022/08/05 04:36:48;;;;;;;1.53;1.43;;;;;;;23.39;68.33;95203.97;4298827;33;20217;-59
2022/08/05 04:39:13;;;;;;;1.07;1.07;;;;;;;23.42;68.18;95216.78;4291654;33;20234;-58
2022/08/05 04:41:39;;;;;;;0.50;0.50;;;;;;;23.36;69.29;95229.09;4291737;33;20190;-58
2022/08/05 04:44:04;;;;;;;0.97;0.97;;;;;;;23.37;69.37;95219.81;4280084;33;20228;-58
2022/08/05 04:46:30;;;;;;;1.67;1.33;;;;;;;23.34;69.31;95231.41;4296554;33;20238;-57
2022/08/05 04:48:56;;;;;;;1.37;1.37;;;;;;;23.29;69.35;95232.53;4276161;33;20261;-58
2022/08/05 04:51:21;;;;;;;1.10;1.10;;;;;;;23.33;69.40;95219.03;4295516;33;20333;-59
2022/08/05 04:53:46;;;;;;;1.07;1.07;;;;;;;23.29;70.07;95230.59;4291224;33;20194;-58
2022/08/05 04:56:13;;;;;;;1.13;1.13;;;;;;;23.33;69.35;95225.22;4288232;33;20245;-58
2022/08/05 04:58:39;;;;;;;0.97;0.97;;;;;;;23.34;69.13;95226.00;4276867;33;20210;-58
2022/08/05 05:01:07;;;;;;;0.80;0.80;;;;;;;23.37;69.11;95225.25;4282048;33;20208;-57
2022/08/05 05:03:32;;;;;;;1.27;1.13;;;;;;;23.37;69.39;95226.03;4283280;33;20297;-57
2022/08/05 05:05:58;;;;;;;0.70;0.70;;;;;;;23.38;69.40;95227.56;4278270;33;20206;-57
2022/08/05 05:08:23;;;;;;;1.10;1.10;;;;;;;23.43;69.21;95226.44;4299352;33;20183;-59
2022/08/05 05:10:48;;;;;;;2.27;0.97;;;;;;;23.44;69.21;95220.66;4285775;33;20190;-59
2022/08/05 05:13:15;;;;;;;0.70;0.70;;;;;;;23.46;69.42;95228.41;4285533;33;20186;-58
2022/08/05 05:15:42;;;;;;;1.27;1.27;;;;;;;23.50;68.85;95231.88;4289375;33;20198;-58
2022/08/05 05:18:08;;;;;;;0.97;0.97;;;;;;;23.48;69.43;95231.53;4294752;33;20216;-58
2022/08/05 05:20:34;;;;;;;0.80;0.80;;;;;;;23.58;68.43;95237.00;4287379;33;20249;-58
2022/08/05 05:23:03;;;;;;;1.43;1.37;;;;;;;23.61;68.08;95246.31;4288969;33;20198;-58
2022/08/05 05:25:29;;;;;;;1.53;1.43;;;;;;;23.64;67.86;95237.44;4292942;33;20217;-58
2022/08/05 05:27:54;;;;;;;0.97;0.97;;;;;;;23.63;68.24;95238.59;4298939;33;20199;-59
2022/08/05 05:30:20;;;;;;;1.70;1.30;;;;;;;23.69;67.68;95247.16;4284014;33;20286;-58
2022/08/05 05:32:45;;;;;;;1.23;1.23;;;;;;;23.74;67.52;95239.41;4274112;33;20205;-57
2022/08/05 05:35:11;;;;;;;0.60;0.60;;;;;;;23.73;67.54;95240.56;4285132;33;20195;-57
2022/08/05 05:37:51;;;;;;;16.37;4.53;;;;;;;23.80;67.22;95247.97;4273867;33;20203;-57
2022/08/05 05:40:19;;;;;;;2.03;1.87;;;;;;;23.83;67.45;95247.22;4280353;33;20215;-57
2022/08/05 05:42:45;;;;;;;0.60;0.60;;;;;;;23.84;66.93;95241.41;4273403;33;20246;-57
2022/08/05 05:45:10;;;;;;;20.30;2.33;;;;;;;23.84;66.41;95249.53;4296175;33;20195;-57
2022/08/05 05:47:36;;;;;;;0.87;0.87;;;;;;;23.86;66.45;95249.94;4279266;33;20233;-58
2022/08/05 05:50:02;;;;;;;1.77;0.83;;;;;;;23.93;65.91;95254.59;4276391;33;20244;-58
2022/08/05 05:52:27;;;;;;;0.73;0.73;;;;;;;23.94;65.79;95258.88;4278250;33;20229;-57
2022/08/05 05:54:52;;;;;;;1.43;1.13;;;;;;;23.95;65.61;95253.06;4287385;33;20190;-59
2022/08/05 05:57:18;;;;;;;0.90;0.90;;;;;;;24.04;65.37;95251.94;4293353;33;20206;-57
2022/08/05 05:59:44;;;;;;;0.57;0.57;;;;;;;24.08;65.27;95255.47;4284853;33;20190;-57
2022/08/05 06:02:09;;;;;;;0.80;0.80;;;;;;;24.09;65.08;95248.88;4286613;33;20190;-57
2022/08/05 06:04:34;;;;;;;1.00;1.00;;;;;;;24.15;65.20;95252.75;4295258;33;20217;-57
2022/08/05 06:07:00;;;;;;;0.60;0.60;;;;;;;24.15;65.24;95248.09;4274102;33;20217;-57
2022/08/05 06:09:25;;;;;;;1.23;1.23;;;;;;;24.20;64.81;95257.81;4285861;33;20254;-57
2022/08/05 06:11:51;;;;;;;7.97;1.67;;;;;;;24.20;65.13;95249.69;4286430;33;20230;-57
2022/08/05 06:14:16;;;;;;;1.00;1.00;;;;;;;24.19;65.18;95254.31;4286158;33;20194;-57
2022/08/05 06:16:41;;;;;;;0.60;0.60;;;;;;;24.22;64.66;95255.50;4279185;33;20186;-57
2022/08/05 06:19:07;;;;;;;0.50;0.50;;;;;;;24.13;65.72;95255.84;4274649;33;20201;-57
2022/08/05 06:21:33;;;;;;;1.03;1.03;;;;;;;24.13;64.99;95255.84;4279282;33;20303;-56
2022/08/05 06:23:58;;;;;;;0.60;0.60;;;;;;;24.13;64.87;95255.84;4286823;33;20191;-58
2022/08/05 06:26:24;;;;;;;1.23;1.23;;;;;;;24.17;64.71;95247.72;4292147;33;20198;-57
2022/08/05 06:28:49;;;;;;;1.03;1.03;;;;;;;24.28;64.07;95254.00;4292908;33;20205;-56
2022/08/05 06:31:15;;;;;;;0.40;0.40;;;;;;;24.27;64.13;95255.94;4277696;33;20185;-57
2022/08/05 06:33:40;;;;;;;1.17;1.13;;;;;;;24.36;63.71;95249.38;4292096;33;20208;-57
2022/08/05 06:36:06;;;;;;;0.97;0.97;;;;;;;24.38;63.85;95253.25;4287015;33;20203;-57
2022/08/05 06:38:31;;;;;;;3.57;1.33;;;;;;;24.40;63.87;95253.66;4285467;33;20210;-57
2022/08/05 06:40:56;;;;;;;3.97;0.70;;;;;;;24.40;64.04;95264.50;4274795;33;20261;-56
2022/08/05 06:43:22;;;;;;;0.67;0.67;;;;;;;24.48;63.92;95255.22;4292379;33;20234;-56
2022/08/05 06:45:47;;;;;;;0.73;0.73;;;;;;;24.52;63.54;95253.31;4279024;33;20224;-57
2022/08/05 06:48:12;;;;;;;1.53;0.90;;;;;;;24.57;63.37;95257.56;4284848;33;20237;-60
2022/08/05 06:50:38;;;;;;;1.60;1.30;;;;;;;24.71;62.54;95262.25;4284170;33;20199;-55
2022/08/05 06:53:03;;;;;;;0.90;0.63;;;;;;;24.71;62.81;95264.97;4285943;33;20224;-56
2022/08/05 06:55:29;;;;;;;0.60;0.57;;;;;;;24.76;62.21;95270.00;4285713;33;20195;-57
2022/08/05 06:57:54;;;;;;;1.33;1.23;;;;;;;24.81;62.59;95273.13;4286866;33;20225;-57
2022/08/05 07:00:19;;;;;;;0.57;0.57;;;;;;;24.85;62.34;95265.75;4285353;33;20186;-55
2022/08/05 07:02:46;;;;;;;0.47;0.47;;;;;;;24.88;62.06;95261.50;4274285;33;20194;-60
2022/08/05 07:05:12;;;;;;;1.27;1.27;;;;;;;24.94;62.37;95278.97;4294669;33;20194;-58
2022/08/05 07:07:38;;;;;;;1.93;1.13;;;;;;;25.00;61.98;95269.28;4289146;33;20191;-58
2022/08/05 07:10:05;;;;;;;0.63;0.63;;;;;;;25.08;61.49;95270.06;4275170;33;20186;-58
2022/08/05 07:17:58;;;;;;;1.77;1.20;;;;;;;25.13;61.59;95270.47;4289765;33;20216;-58
2022/08/05 07:20:23;;;;;;;0.93;0.93;;;;;;;25.17;61.14;95282.09;4275769;33;20186;-58
2022/08/05 07:22:49;;;;;;;0.80;0.80;;;;;;;25.18;61.27;95280.91;4289794;33;20205;-59
2022/08/05 07:25:14;;;;;;;0.83;0.83;;;;;;;25.19;61.11;95296.06;4294017;33;20190;-60
2022/08/05 07:27:39;;;;;;;0.40;0.40;;;;;;;25.22;60.91;95297.22;4280635;33;20223;-58
2022/08/05 07:30:05;;;;;;;1.73;1.23;;;;;;;25.22;61.18;95303.44;4289721;33;20221;-56
2022/08/05 07:32:37;;;;;;;0.80;0.80;;;;;;;25.07;62.37;95311.97;4287505;33;20203;-55
2022/08/05 07:35:07;;;;;;;0.80;0.80;;;;;;;24.78;62.37;95322.72;4283918;33;20300;-56
2022/08/05 07:37:32;;;;;;;0.87;0.87;;;;;;;24.75;62.27;95320.00;4290048;33;22864;-56
2022/08/05 07:39:58;;;;;;;0.87;0.87;;;;;;;24.64;62.72;95334.34;4278344;33;20224;-56
2022/08/05 07:42:23;;;;;;;1.07;0.90;;;;;;;24.57;62.73;95330.81;4289790;33;20257;-56
2022/08/05 07:44:48;;;;;;;1.13;1.13;;;;;;;24.56;63.10;95330.03;4289760;33;20213;-57
2022/08/05 07:47:14;;;;;;;0.50;0.50;;;;;;;24.57;63.14;95323.44;4276151;33;20246;-60
2022/08/05 07:49:39;;;;;;;0.80;0.80;;;;;;;24.73;63.12;95327.78;4276123;33;20221;-58
2022/08/05 07:52:05;;;;;;;0.77;0.77;;;;;;;24.77;62.93;95332.03;4281232;33;20198;-58
2022/08/05 07:54:30;;;;;;;0.87;0.87;;;;;;;24.73;63.12;95335.91;4283319;33;20277;-57
2022/08/05 07:56:56;;;;;;;1.13;1.13;;;;;;;24.93;63.28;95350.72;4283801;33;20190;-59
2022/08/05 07:59:21;;;;;;;1.53;1.23;;;;;;;24.95;62.82;95351.09;4278009;33;20213;-58
2022/08/05 08:01:46;;;;;;;0.80;0.80;;;;;;;24.92;62.92;95358.06;4277512;33;20202;-58
2022/08/05 08:04:12;;;;;;;1.47;1.37;;;;;;;24.99;62.81;95365.47;4288013;33;20187;-56
2022/08/05 08:06:37;;;;;;;0.43;0.43;;;;;;;25.11;62.81;95375.19;4275347;33;20217;-56
2022/08/05 08:09:03;;;;;;;1.30;1.30;;;;;;;25.10;62.43;95368.22;4270160;33;20436;-58
2022/08/05 08:11:28;;;;;;;1.30;1.30;;;;;;;25.03;62.36;95368.19;4284605;33;20229;-57
2022/08/05 08:13:54;;;;;;;1.00;0.73;;;;;;;25.13;62.24;95370.16;4291080;33;20206;-60
2022/08/05 08:16:19;;;;;;;0.93;0.93;;;;;;;25.12;61.96;95380.25;4281492;33;20238;-59
2022/08/05 08:18:45;;;;;;;0.70;0.70;;;;;;;25.13;61.59;95376.38;4282333;33;20189;-58
2022/08/05 08:21:10;;;;;;;0.90;0.90;;;;;;;25.19;60.98;95380.25;4285381;33;20229;-58
2022/08/05 08:23:35;;;;;;;1.23;0.63;;;;;;;25.17;61.23;95379.84;4284836;33;20225;-58
2022/08/05 08:26:01;;;;;;;0.77;0.70;;;;;;;25.20;60.75;95381.03;4286423;33;20273;-58
2022/08/05 08:28:27;;;;;;;1.00;1.00;;;;;;;25.22;60.55;95390.34;4277112;33;20206;-58
2022/08/05 08:30:52;;;;;;;1.10;1.10;;;;;;;25.29;59.72;95390.37;4285650;33;20237;-58
2022/08/05 08:33:17;;;;;;;1.57;1.10;;;;;;;25.36;58.99;95395.00;4280949;33;20263;-60
2022/08/05 08:35:43;;;;;;;1.17;1.17;;;;;;;25.32;58.41;95405.13;4273245;33;20238;-58
2022/08/05 08:38:08;;;;;;;1.00;1.00;;;;;;;25.31;58.70;95415.22;4284029;33;20190;-58
2022/08/05 08:40:35;;;;;;;0.97;0.97;;;;;;;25.39;58.18;95407.03;4283172;33;20214;-58
2022/08/05 08:43:01;;;;;;;0.80;0.80;;;;;;;25.37;58.00;95410.16;4288225;33;20203;-58
2022/08/05 08:45:28;;;;;;;0.90;0.90;;;;;;;25.32;58.47;95411.31;4289633;33;20202;-58
2022/08/05 08:47:55;;;;;;;0.53;0.53;;;;;;;25.32;58.36;95424.12;4281032;33;20225;-57
2022/08/05 08:50:20;;;;;;;1.67;1.57;;;;;;;25.45;58.11;95419.09;4289545;33;20221;-58
2022/08/05 08:52:52;;;;;;;1.23;1.23;;;;;;;25.41;58.31;95435.37;4289066;33;20238;-59
2022/08/05 08:55:18;;;;;;;2.20;0.77;;;;;;;25.42;58.27;95436.94;4299029;33;20231;-58
2022/08/05 08:57:47;;;;;;;1.77;1.70;;;;;;;25.37;58.23;95434.59;4293772;33;20206;-58
2022/08/05 09:00:12;;;;;;;0.90;0.90;;;;;;;25.37;58.53;95439.25;4288890;33;20186;-58
2022/08/05 09:02:38;;;;;;;1.10;1.10;;;;;;;25.42;58.50;95445.09;4296156;33;20190;-57
2022/08/05 09:05:03;;;;;;;0.60;0.60;;;;;;;25.33;58.73;95445.47;4297125;33;20190;-58
2022/08/05 09:07:29;;;;;;;0.80;0.80;;;;;;;25.39;58.46;95442.37;4296853;33;20194;-59
2022/08/05 09:09:54;;;;;;;1.33;1.23;;;;;;;25.37;58.46;95450.13;4283249;33;20194;-58
2022/08/05 09:12:20;;;;;;;1.17;1.07;;;;;;;25.43;57.79;95443.16;4285011;33;20194;-57
2022/08/05 09:14:46;;;;;;;1.70;1.47;;;;;;;25.45;58.66;95446.25;4281553;33;20190;-58
2022/08/05 09:17:11;;;;;;;1.10;1.07;;;;;;;25.48;58.26;95451.72;4302981;33;20214;-58
2022/08/05 09:19:37;;;;;;;1.73;1.63;;;;;;;25.46;58.55;95464.13;4286254;33;20183;-58
2022/08/05 09:22:03;;;;;;;0.90;0.90;;;;;;;25.55;57.30;95459.88;4286241;33;20304;-58
2022/08/05 09:24:29;;;;;;;0.80;0.80;;;;;;;25.67;56.78;95464.19;4285238;33;20194;-59
2022/08/05 09:26:56;;;;;;;1.07;1.07;;;;;;;25.63;57.61;95468.84;4298273;33;20201;-58
2022/08/05 09:29:45;;;;;;;0.80;0.80;;;;;;;25.60;58.27;95461.41;4297566;33;20187;-58
2022/08/05 09:32:11;;;;;;;0.93;0.93;;;;;;;25.61;58.07;95471.13;4294597;33;20230;-58
2022/08/05 09:34:46;;;;;;;1.70;1.60;;;;;;;25.55;58.19;95467.25;4297260;33;20182;-58
2022/08/05 09:37:20;;;;;;;0.90;0.90;;;;;;;25.66;58.01;95473.50;4290110;33;20198;-57
2022/08/05 09:39:45;;;;;;;3.17;1.47;;;;;;;25.68;58.11;95471.97;4296279;33;20194;-57
2022/08/05 09:42:18;;;;;;;1.87;1.77;;;;;;;25.79;57.15;95466.50;4301989;33;20209;-58
2022/08/05 09:44:51;;;;;;;0.83;0.83;;;;;;;25.76;57.34;95461.09;4297395;33;20230;-60
2022/08/05 09:47:23;;;;;;;0.87;0.87;;;;;;;25.83;57.17;95467.31;4279386;33;20250;-58
2022/08/05 09:49:54;;;;;;;0.70;0.70;;;;;;;25.86;56.84;95460.31;4294233;33;20190;-58
2022/08/05 09:52:32;;;;;;;1.20;1.20;;;;;;;25.95;56.74;95464.22;4274893;33;20238;-58
2022/08/05 09:54:59;;;;;;;0.90;0.90;;;;;;;25.90;57.00;95461.88;4277724;33;20195;-58
2022/08/05 09:57:39;;;;;;;1.33;1.23;;;;;;;25.64;57.80;95465.72;4274691;33;20216;-59
2022/08/05 10:00:09;;;;;;;1.10;1.00;;;;;;;25.78;57.28;95470.41;4280545;33;20205;-57
2022/08/05 10:02:37;;;;;;;2.90;1.10;;;;;;;25.96;56.05;95471.22;4282956;33;20213;-57
2022/08/05 10:05:05;;;;;;;1.20;1.20;;;;;;;26.05;55.84;95475.47;4294403;33;20322;-56
2022/08/05 10:07:50;;;;;;;5.27;1.00;;;;;;;25.84;57.04;95470.78;4273598;33;20194;-57
2022/08/05 10:10:22;;;;;;;1.13;1.13;;;;;;;25.76;57.23;95471.97;4294550;33;20194;-57
2022/08/05 10:12:50;;;;;;;0.70;0.70;;;;;;;25.77;57.06;95473.53;4296414;33;20186;-56
2022/08/05 10:15:21;;;;;;;2.53;1.80;;;;;;;25.76;57.49;95466.53;4272370;33;20229;-57
2022/08/05 10:18:15;;;;;;;1.17;1.17;;;;;;;25.79;57.19;95469.22;4286541;33;20218;-57
2022/08/05 10:20:55;;;;;;;0.70;0.70;;;;;;;25.75;57.10;95487.50;4299113;33;20234;-56
2022/08/05 10:23:24;;;;;;;0.97;0.97;;;;;;;25.72;57.61;95477.41;4287710;33;20190;-57
2022/08/05 10:25:49;;;;;;;1.07;1.00;;;;;;;25.73;57.44;95468.09;4299429;33;20209;-57
2022/08/05 10:28:16;;;;;;;1.47;1.33;;;;;;;25.63;57.96;95471.56;4283345;33;20191;-57
2022/08/05 10:30:41;;;;;;;1.03;1.03;;;;;;;25.75;57.56;95478.56;4287892;33;20257;-55
2022/08/05 10:33:07;;;;;;;1.63;1.53;;;;;;;25.74;57.54;95485.94;4283673;33;20214;-57
2022/08/05 10:35:34;;;;;;;1.30;1.30;;;;;;;25.87;56.50;95481.69;4280031;33;20270;-56
2022/08/05 10:38:00;;;;;;;0.80;0.80;;;;;;;25.86;56.97;95485.56;4295484;33;20199;-57
2022/08/05 10:40:38;;;;;;;1.23;1.23;;;;;;;26.05;56.25;95489.84;4281528;33;20187;-57
2022/08/05 10:43:34;;;;;;;0.80;0.80;;;;;;;25.88;56.47;95485.19;4290133;33;20187;-57
2022/08/05 10:46:20;;;;;;;0.57;0.57;;;;;;;25.83;56.13;95483.63;4280298;33;20191;-56
2022/08/05 10:48:47;;;;;;;0.67;0.67;;;;;;;26.22;53.96;95480.09;4290035;33;20237;-57
2022/08/05 10:51:17;;;;;;;0.80;0.80;;;;;;;26.85;52.10;95486.63;4298773;33;20195;-60
2022/08/05 10:53:58;;;;;;;0.80;0.80;;;;;;;27.11;51.08;95466.31;4292803;33;20253;-57
2022/08/05 10:56:27;;;;;;;1.23;1.23;;;;;;;26.64;53.34;95480.06;4278115;33;20226;-57
2022/08/05 10:58:52;;;;;;;0.97;0.97;;;;;;;26.47;54.05;95483.63;4281046;33;20198;-57
2022/08/05 11:01:27;;;;;;;1.23;1.23;;;;;;;26.25;54.84;95482.06;4300562;33;20245;-57
2022/08/05 11:04:16;;;;;;;0.90;0.90;;;;;;;26.19;55.04;95489.03;4292165;33;20191;-57
2022/08/05 11:06:57;;;;;;;0.97;0.97;;;;;;;26.54;53.53;95475.44;4285483;33;20250;-57
2022/08/05 11:09:26;;;;;;;0.70;0.70;;;;;;;26.65;53.41;95467.25;4293819;33;20182;-57
2022/08/05 11:11:53;;;;;;;1.73;1.63;;;;;;;26.27;55.02;95469.62;4296869;33;20269;-57
2022/08/05 11:14:37;;;;;;;2.00;1.00;;;;;;;26.16;55.76;95462.66;4287167;33;20202;-57
2022/08/05 11:17:25;;;;;;;1.03;1.03;;;;;;;26.47;54.30;95472.72;4299254;33;20311;-57
2022/08/05 11:19:52;;;;;;;0.97;0.97;;;;;;;26.09;55.82;95478.97;4282442;33;20202;-56
2022/08/05 11:22:41;;;;;;;0.70;0.70;;;;;;;26.22;55.51;95466.50;4292731;33;20198;-56
2022/08/05 11:25:29;;;;;;;0.73;0.73;;;;;;;26.17;55.64;95469.66;4278989;33;20183;-56
2022/08/05 11:27:55;;;;;;;1.03;1.03;;;;;;;26.03;56.16;95460.31;4298401;33;20265;-56
2022/08/05 11:30:21;;;;;;;0.93;0.93;;;;;;;26.53;53.58;95470.38;4291282;33;20216;-57
2022/08/05 11:32:46;;;;;;;0.77;0.77;;;;;;;26.54;54.23;95463.78;4298905;33;20186;-57
2022/08/05 11:35:51;;;;;;;1.00;1.00;;;;;;;26.55;54.11;95460.66;4295521;33;20204;-57
2022/08/05 11:38:16;;;;;;;2.40;1.07;;;;;;;27.14;50.85;95458.16;4292104;33;20191;-57
2022/08/05 11:41:06;;;;;;;1.00;1.00;;;;;;;27.12;51.37;95460.47;4294033;33;20206;-57
2022/08/05 11:43:32;;;;;;;1.07;0.90;;;;;;;27.50;48.68;95461.44;4289278;33;20194;-56
2022/08/05 11:45:59;;;;;;;0.93;0.93;;;;;;;27.21;50.67;95452.66;4300018;33;20233;-56